Forside
METAR-TAF:

METAR-TAF

Lufthavne :

Tuzla, Bosnien-Hercegovina

Breddekreds: 44-33N, længdekreds: 018-42E, højde: 306 m

Aktuelle vejr

Denne rapport blev lavet for 24 minutter siden, kl. 20:30 UTC
Vind 2 kt fra varierende retninger
Temperatur 21°C
Fugtighed 94%
Tryk 1015 hPa
Sigt 10 km eller mere
ingen skyer under 1500m og ingen cumulonimbus

METAR: LQTZ 222030Z VRB02KT CAVOK 21/20 Q1015

Tid: 22:54 (20:54 UTC)

Vejrudsigter

Denne rapport blev lavet for 3 timer og 54 minutter siden, kl. 17:00 UTC
Foreløbig gælder fra 22 på 18 UTC til 23 på 18 UTC
Vind 5 kt fra vest
Sigt 10 km eller mere
Spredte skyer i en højde af 4500 ft
Midlertidig
fra 23 på 08 UTC til 23 på 18 UTC
Vind 12 kt fra nordnordvest
Sandsynlighed 30% :
Midlertidig
fra 23 på 12 UTC til 23 på 18 UTC
Nogle få skyer i en højde af 3500 ft, Cumulonimbus.
Spredte skyer i en højde af 4500 ft
tordenbyger, regn,

TAF: LQTZ 221700Z 2218/2318 28005KT 9999 SCT045 TX28/2312Z TN18/2303Z TEMPO 2308/2318 34012KT PROB30 TEMPO 2312/2318 TSRA FEW035CB SCT045

Vejrobservationer og prognoser fra mere end 4000 lufthavne (METAR og TAF).

De gule og røde prikker repræsenterer de meteorologiske stationer.

Flyt musen over at se navnet på stationen.

Så klik over at se vejr observationer og prognoser.

At skifte det kort: Klik på de grønne knapper med et sort kors for at zoome ind; på den grønne knap med en bindestreg for at zoome ud; eller på de grønne pile for tilstødende kort.


METAR-TAF: